sensor_id;sensor_type;location;lat;lon;timestamp;temperature;humidity
24176;DHT22;12324;48.146;11.502;2022-12-07T00:01:24;2.50;99.90
24176;DHT22;12324;48.146;11.502;2022-12-07T00:03:52;2.50;99.90
24176;DHT22;12324;48.146;11.502;2022-12-07T00:06:20;2.40;99.90
24176;DHT22;12324;48.146;11.502;2022-12-07T00:08:47;2.40;99.90
24176;DHT22;12324;48.146;11.502;2022-12-07T00:11:17;2.40;99.90
24176;DHT22;12324;48.146;11.502;2022-12-07T00:13:45;2.40;99.90
24176;DHT22;12324;48.146;11.502;2022-12-07T00:16:17;2.40;99.90
24176;DHT22;12324;48.146;11.502;2022-12-07T00:18:45;2.40;99.90
24176;DHT22;12324;48.146;11.502;2022-12-07T00:21:17;2.40;99.90
24176;DHT22;12324;48.146;11.502;2022-12-07T00:23:46;2.30;99.90
24176;DHT22;12324;48.146;11.502;2022-12-07T00:26:21;2.30;99.90
24176;DHT22;12324;48.146;11.502;2022-12-07T00:28:53;2.30;99.90
24176;DHT22;12324;48.146;11.502;2022-12-07T00:31:22;2.30;99.90
24176;DHT22;12324;48.146;11.502;2022-12-07T00:33:50;2.30;99.90
24176;DHT22;12324;48.146;11.502;2022-12-07T00:36:19;2.20;99.90
24176;DHT22;12324;48.146;11.502;2022-12-07T00:38:53;2.20;99.90
24176;DHT22;12324;48.146;11.502;2022-12-07T00:41:22;2.30;99.90
24176;DHT22;12324;48.146;11.502;2022-12-07T00:43:50;2.20;99.90
24176;DHT22;12324;48.146;11.502;2022-12-07T00:46:18;2.20;99.90
24176;DHT22;12324;48.146;11.502;2022-12-07T00:48:46;2.20;99.90
24176;DHT22;12324;48.146;11.502;2022-12-07T00:51:14;2.20;99.90
24176;DHT22;12324;48.146;11.502;2022-12-07T00:53:41;2.20;99.90
24176;DHT22;12324;48.146;11.502;2022-12-07T00:56:11;2.10;99.90
24176;DHT22;12324;48.146;11.502;2022-12-07T00:58:38;2.10;99.90
24176;DHT22;12324;48.146;11.502;2022-12-07T01:01:05;2.20;99.90
24176;DHT22;12324;48.146;11.502;2022-12-07T01:03:33;2.20;99.90
24176;DHT22;12324;48.146;11.502;2022-12-07T01:06:00;2.30;99.90
24176;DHT22;12324;48.146;11.502;2022-12-07T01:08:27;2.20;99.90
24176;DHT22;12324;48.146;11.502;2022-12-07T01:10:59;2.20;99.90
24176;DHT22;12324;48.146;11.502;2022-12-07T01:13:27;2.20;99.90
24176;DHT22;12324;48.146;11.502;2022-12-07T01:16:00;2.20;99.90
24176;DHT22;12324;48.146;11.502;2022-12-07T01:18:28;2.10;99.90
24176;DHT22;12324;48.146;11.502;2022-12-07T01:21:12;2.10;99.90
24176;DHT22;12324;48.146;11.502;2022-12-07T01:23:39;2.10;99.90
24176;DHT22;12324;48.146;11.502;2022-12-07T01:26:10;2.10;99.90
24176;DHT22;12324;48.146;11.502;2022-12-07T01:28:37;2.10;99.90
24176;DHT22;12324;48.146;11.502;2022-12-07T01:31:05;2.10;99.90
24176;DHT22;12324;48.146;11.502;2022-12-07T01:33:35;2.10;99.90
24176;DHT22;12324;48.146;11.502;2022-12-07T01:38:32;2.10;99.90
24176;DHT22;12324;48.146;11.502;2022-12-07T01:41:00;2.20;99.90
24176;DHT22;12324;48.146;11.502;2022-12-07T01:43:28;2.10;99.90
24176;DHT22;12324;48.146;11.502;2022-12-07T01:45:56;2.10;99.90
24176;DHT22;12324;48.146;11.502;2022-12-07T01:48:31;2.10;99.90
24176;DHT22;12324;48.146;11.502;2022-12-07T01:51:04;2.10;99.90
24176;DHT22;12324;48.146;11.502;2022-12-07T01:53:32;2.20;99.90
24176;DHT22;12324;48.146;11.502;2022-12-07T01:56:02;2.10;99.90
24176;DHT22;12324;48.146;11.502;2022-12-07T01:58:29;2.10;99.90
24176;DHT22;12324;48.146;11.502;2022-12-07T02:00:56;2.10;99.90
24176;DHT22;12324;48.146;11.502;2022-12-07T02:03:31;2.00;99.90
24176;DHT22;12324;48.146;11.502;2022-12-07T02:05:59;2.10;99.90
24176;DHT22;12324;48.146;11.502;2022-12-07T02:08:26;2.10;99.90
24176;DHT22;12324;48.146;11.502;2022-12-07T02:10:53;2.00;99.90
24176;DHT22;12324;48.146;11.502;2022-12-07T02:13:25;2.00;99.90
24176;DHT22;12324;48.146;11.502;2022-12-07T02:24:52;2.10;99.90
24176;DHT22;12324;48.146;11.502;2022-12-07T02:27:34;2.10;99.90
24176;DHT22;12324;48.146;11.502;2022-12-07T02:30:08;2.10;99.90
24176;DHT22;12324;48.146;11.502;2022-12-07T02:32:55;2.00;99.90
24176;DHT22;12324;48.146;11.502;2022-12-07T02:35:36;2.00;99.90
24176;DHT22;12324;48.146;11.502;2022-12-07T02:41:06;2.10;99.90
24176;DHT22;12324;48.146;11.502;2022-12-07T02:43:43;2.10;99.90
24176;DHT22;12324;48.146;11.502;2022-12-07T02:46:16;2.00;99.90
24176;DHT22;12324;48.146;11.502;2022-12-07T02:48:44;2.00;99.90
24176;DHT22;12324;48.146;11.502;2022-12-07T02:51:11;2.00;99.90
24176;DHT22;12324;48.146;11.502;2022-12-07T02:53:43;2.10;99.90
24176;DHT22;12324;48.146;11.502;2022-12-07T03:04:52;2.10;99.90
24176;DHT22;12324;48.146;11.502;2022-12-07T03:18:43;2.10;99.90
24176;DHT22;12324;48.146;11.502;2022-12-07T03:21:20;2.10;99.90
24176;DHT22;12324;48.146;11.502;2022-12-07T03:23:51;2.10;99.90
24176;DHT22;12324;48.146;11.502;2022-12-07T03:26:22;2.10;99.90
24176;DHT22;12324;48.146;11.502;2022-12-07T03:28:55;2.10;99.90
24176;DHT22;12324;48.146;11.502;2022-12-07T03:31:25;2.10;99.90
24176;DHT22;12324;48.146;11.502;2022-12-07T03:34:27;2.10;99.90
24176;DHT22;12324;48.146;11.502;2022-12-07T03:37:08;2.10;99.90
24176;DHT22;12324;48.146;11.502;2022-12-07T03:39:58;2.10;99.90
24176;DHT22;12324;48.146;11.502;2022-12-07T03:42:29;2.10;99.90
24176;DHT22;12324;48.146;11.502;2022-12-07T03:44:57;2.10;99.90
24176;DHT22;12324;48.146;11.502;2022-12-07T03:47:35;2.00;99.90
24176;DHT22;12324;48.146;11.502;2022-12-07T03:50:18;2.00;99.90
24176;DHT22;12324;48.146;11.502;2022-12-07T03:52:55;2.00;99.90
24176;DHT22;12324;48.146;11.502;2022-12-07T03:55:27;2.00;99.90
24176;DHT22;12324;48.146;11.502;2022-12-07T03:58:00;2.10;99.90
24176;DHT22;12324;48.146;11.502;2022-12-07T04:00:27;2.10;99.90
24176;DHT22;12324;48.146;11.502;2022-12-07T04:02:55;2.10;99.90
24176;DHT22;12324;48.146;11.502;2022-12-07T04:05:23;2.10;99.90
24176;DHT22;12324;48.146;11.502;2022-12-07T04:07:50;2.00;99.90
24176;DHT22;12324;48.146;11.502;2022-12-07T04:10:17;2.00;99.90
24176;DHT22;12324;48.146;11.502;2022-12-07T04:12:44;2.00;99.90
24176;DHT22;12324;48.146;11.502;2022-12-07T04:15:11;2.00;99.90
24176;DHT22;12324;48.146;11.502;2022-12-07T04:17:38;2.00;99.90
24176;DHT22;12324;48.146;11.502;2022-12-07T04:20:05;2.00;99.90
24176;DHT22;12324;48.146;11.502;2022-12-07T04:22:32;2.00;99.90
24176;DHT22;12324;48.146;11.502;2022-12-07T04:24:58;2.00;99.90
24176;DHT22;12324;48.146;11.502;2022-12-07T04:27:25;2.00;99.90
24176;DHT22;12324;48.146;11.502;2022-12-07T04:29:52;2.00;99.90
24176;DHT22;12324;48.146;11.502;2022-12-07T04:32:18;2.00;99.90
24176;DHT22;12324;48.146;11.502;2022-12-07T04:34:45;2.00;99.90
24176;DHT22;12324;48.146;11.502;2022-12-07T04:37:11;2.00;99.90
24176;DHT22;12324;48.146;11.502;2022-12-07T04:39:38;2.00;99.90
24176;DHT22;12324;48.146;11.502;2022-12-07T04:42:04;2.00;99.90
24176;DHT22;12324;48.146;11.502;2022-12-07T04:44:31;1.90;99.90
24176;DHT22;12324;48.146;11.502;2022-12-07T04:46:58;1.90;99.90
24176;DHT22;12324;48.146;11.502;2022-12-07T04:49:25;1.90;99.90
24176;DHT22;12324;48.146;11.502;2022-12-07T04:51:52;1.90;99.90
24176;DHT22;12324;48.146;11.502;2022-12-07T04:54:18;1.90;99.90
24176;DHT22;12324;48.146;11.502;2022-12-07T04:56:45;1.90;99.90
24176;DHT22;12324;48.146;11.502;2022-12-07T04:59:12;1.90;99.90
24176;DHT22;12324;48.146;11.502;2022-12-07T05:01:39;1.90;99.90
24176;DHT22;12324;48.146;11.502;2022-12-07T05:04:06;1.80;99.90
24176;DHT22;12324;48.146;11.502;2022-12-07T05:06:33;1.80;99.90
24176;DHT22;12324;48.146;11.502;2022-12-07T05:09:00;1.90;99.90
24176;DHT22;12324;48.146;11.502;2022-12-07T05:11:27;1.80;99.90
24176;DHT22;12324;48.146;11.502;2022-12-07T05:14:12;1.80;99.90
24176;DHT22;12324;48.146;11.502;2022-12-07T05:16:40;1.80;99.90
24176;DHT22;12324;48.146;11.502;2022-12-07T05:19:08;1.80;99.90
24176;DHT22;12324;48.146;11.502;2022-12-07T05:21:35;1.80;99.90
24176;DHT22;12324;48.146;11.502;2022-12-07T05:24:02;1.70;99.90
24176;DHT22;12324;48.146;11.502;2022-12-07T05:26:30;1.70;99.90
24176;DHT22;12324;48.146;11.502;2022-12-07T05:28:57;1.70;99.90
24176;DHT22;12324;48.146;11.502;2022-12-07T05:31:25;1.70;99.90
24176;DHT22;12324;48.146;11.502;2022-12-07T05:33:52;1.70;99.90
24176;DHT22;12324;48.146;11.502;2022-12-07T05:36:19;1.70;99.90
24176;DHT22;12324;48.146;11.502;2022-12-07T05:38:46;1.70;99.90
24176;DHT22;12324;48.146;11.502;2022-12-07T05:41:15;1.70;99.90
24176;DHT22;12324;48.146;11.502;2022-12-07T05:44:01;1.70;99.90
24176;DHT22;12324;48.146;11.502;2022-12-07T05:46:28;1.70;99.90
24176;DHT22;12324;48.146;11.502;2022-12-07T05:48:54;1.70;99.90
24176;DHT22;12324;48.146;11.502;2022-12-07T05:51:21;1.70;99.90
24176;DHT22;12324;48.146;11.502;2022-12-07T05:53:48;1.70;99.90
24176;DHT22;12324;48.146;11.502;2022-12-07T05:56:15;1.70;99.90
24176;DHT22;12324;48.146;11.502;2022-12-07T05:58:41;1.70;99.90
24176;DHT22;12324;48.146;11.502;2022-12-07T06:01:27;1.60;99.90
24176;DHT22;12324;48.146;11.502;2022-12-07T06:03:54;1.70;99.90
24176;DHT22;12324;48.146;11.502;2022-12-07T06:06:21;1.70;99.90
24176;DHT22;12324;48.146;11.502;2022-12-07T06:08:47;1.60;99.90
24176;DHT22;12324;48.146;11.502;2022-12-07T06:11:14;1.60;99.90
24176;DHT22;12324;48.146;11.502;2022-12-07T06:14:00;1.60;99.90
24176;DHT22;12324;48.146;11.502;2022-12-07T06:16:26;1.60;99.90
24176;DHT22;12324;48.146;11.502;2022-12-07T06:18:53;1.70;99.90
24176;DHT22;12324;48.146;11.502;2022-12-07T06:21:20;1.60;99.90
24176;DHT22;12324;48.146;11.502;2022-12-07T06:23:46;1.70;99.90
24176;DHT22;12324;48.146;11.502;2022-12-07T06:26:14;1.70;99.90
24176;DHT22;12324;48.146;11.502;2022-12-07T06:28:41;1.70;99.90
24176;DHT22;12324;48.146;11.502;2022-12-07T06:31:07;1.70;99.90
24176;DHT22;12324;48.146;11.502;2022-12-07T06:33:39;1.70;99.90
24176;DHT22;12324;48.146;11.502;2022-12-07T06:36:07;1.70;99.90
24176;DHT22;12324;48.146;11.502;2022-12-07T06:38:33;1.70;99.90
24176;DHT22;12324;48.146;11.502;2022-12-07T06:41:00;1.70;99.90
24176;DHT22;12324;48.146;11.502;2022-12-07T06:43:27;1.70;99.90
24176;DHT22;12324;48.146;11.502;2022-12-07T06:45:53;1.90;99.90
24176;DHT22;12324;48.146;11.502;2022-12-07T06:48:20;1.80;99.90
24176;DHT22;12324;48.146;11.502;2022-12-07T06:50:47;1.70;99.90
24176;DHT22;12324;48.146;11.502;2022-12-07T06:53:20;1.80;99.90
24176;DHT22;12324;48.146;11.502;2022-12-07T06:55:47;1.80;99.90
24176;DHT22;12324;48.146;11.502;2022-12-07T06:58:14;1.70;99.90
24176;DHT22;12324;48.146;11.502;2022-12-07T07:00:40;1.80;99.90
24176;DHT22;12324;48.146;11.502;2022-12-07T07:03:07;1.80;99.90
24176;DHT22;12324;48.146;11.502;2022-12-07T07:05:34;1.80;99.90
24176;DHT22;12324;48.146;11.502;2022-12-07T07:08:00;1.80;99.90
24176;DHT22;12324;48.146;11.502;2022-12-07T07:10:47;1.90;99.90
24176;DHT22;12324;48.146;11.502;2022-12-07T07:13:14;1.90;99.90
24176;DHT22;12324;48.146;11.502;2022-12-07T07:15:40;1.80;99.90
24176;DHT22;12324;48.146;11.502;2022-12-07T07:18:07;1.80;99.90
24176;DHT22;12324;48.146;11.502;2022-12-07T07:20:34;1.80;99.90
24176;DHT22;12324;48.146;11.502;2022-12-07T07:23:00;1.80;99.90
24176;DHT22;12324;48.146;11.502;2022-12-07T07:25:27;1.80;99.90
24176;DHT22;12324;48.146;11.502;2022-12-07T07:27:54;1.80;99.90
24176;DHT22;12324;48.146;11.502;2022-12-07T07:30:21;1.80;99.90
24176;DHT22;12324;48.146;11.502;2022-12-07T07:32:47;1.80;99.90
24176;DHT22;12324;48.146;11.502;2022-12-07T07:35:14;1.80;99.90
24176;DHT22;12324;48.146;11.502;2022-12-07T07:37:41;1.80;99.90
24176;DHT22;12324;48.146;11.502;2022-12-07T07:40:09;1.90;99.90
24176;DHT22;12324;48.146;11.502;2022-12-07T07:42:36;1.90;99.90
24176;DHT22;12324;48.146;11.502;2022-12-07T07:45:03;1.90;99.90
24176;DHT22;12324;48.146;11.502;2022-12-07T07:47:30;1.90;99.90
24176;DHT22;12324;48.146;11.502;2022-12-07T07:49:56;2.00;99.90
24176;DHT22;12324;48.146;11.502;2022-12-07T07:52:23;2.10;99.90
24176;DHT22;12324;48.146;11.502;2022-12-07T07:54:50;2.20;99.90
24176;DHT22;12324;48.146;11.502;2022-12-07T07:57:17;2.10;99.90
24176;DHT22;12324;48.146;11.502;2022-12-07T07:59:44;2.20;99.90
24176;DHT22;12324;48.146;11.502;2022-12-07T08:02:16;2.20;99.90
24176;DHT22;12324;48.146;11.502;2022-12-07T08:04:43;2.10;99.90
24176;DHT22;12324;48.146;11.502;2022-12-07T08:07:11;2.10;99.90
24176;DHT22;12324;48.146;11.502;2022-12-07T08:09:38;2.10;99.90
24176;DHT22;12324;48.146;11.502;2022-12-07T08:12:05;2.10;99.90
24176;DHT22;12324;48.146;11.502;2022-12-07T08:14:32;2.10;99.90
24176;DHT22;12324;48.146;11.502;2022-12-07T08:16:59;2.10;99.90
24176;DHT22;12324;48.146;11.502;2022-12-07T08:19:25;2.00;99.90
24176;DHT22;12324;48.146;11.502;2022-12-07T08:21:52;2.10;99.90
24176;DHT22;12324;48.146;11.502;2022-12-07T08:24:19;2.10;99.90
24176;DHT22;12324;48.146;11.502;2022-12-07T08:26:45;2.10;99.90
24176;DHT22;12324;48.146;11.502;2022-12-07T08:29:12;2.20;99.90
24176;DHT22;12324;48.146;11.502;2022-12-07T08:31:39;2.20;99.90
24176;DHT22;12324;48.146;11.502;2022-12-07T08:34:06;2.20;99.90
24176;DHT22;12324;48.146;11.502;2022-12-07T08:36:32;2.30;99.90
24176;DHT22;12324;48.146;11.502;2022-12-07T08:38:59;2.40;99.90
24176;DHT22;12324;48.146;11.502;2022-12-07T08:41:46;2.30;99.90
24176;DHT22;12324;48.146;11.502;2022-12-07T08:44:13;2.30;99.90
24176;DHT22;12324;48.146;11.502;2022-12-07T08:46:46;2.40;99.90
24176;DHT22;12324;48.146;11.502;2022-12-07T08:49:21;2.40;99.90
24176;DHT22;12324;48.146;11.502;2022-12-07T08:51:50;2.40;99.90
24176;DHT22;12324;48.146;11.502;2022-12-07T08:54:18;2.40;99.90
24176;DHT22;12324;48.146;11.502;2022-12-07T08:56:46;2.40;99.90
24176;DHT22;12324;48.146;11.502;2022-12-07T08:59:16;2.50;99.90
24176;DHT22;12324;48.146;11.502;2022-12-07T09:01:43;2.60;99.90
24176;DHT22;12324;48.146;11.502;2022-12-07T09:04:10;2.60;99.90
24176;DHT22;12324;48.146;11.502;2022-12-07T09:06:37;2.60;99.90
24176;DHT22;12324;48.146;11.502;2022-12-07T09:09:06;2.60;99.90
24176;DHT22;12324;48.146;11.502;2022-12-07T09:11:33;2.60;99.90
24176;DHT22;12324;48.146;11.502;2022-12-07T09:14:00;2.60;99.90
24176;DHT22;12324;48.146;11.502;2022-12-07T09:16:26;2.70;99.90
24176;DHT22;12324;48.146;11.502;2022-12-07T09:18:53;2.70;99.90
24176;DHT22;12324;48.146;11.502;2022-12-07T09:21:20;2.70;99.90
24176;DHT22;12324;48.146;11.502;2022-12-07T09:23:47;2.70;99.90
24176;DHT22;12324;48.146;11.502;2022-12-07T09:26:13;2.80;99.90
24176;DHT22;12324;48.146;11.502;2022-12-07T09:28:40;2.80;99.90
24176;DHT22;12324;48.146;11.502;2022-12-07T09:31:07;2.90;99.90
24176;DHT22;12324;48.146;11.502;2022-12-07T09:33:56;2.80;99.90
24176;DHT22;12324;48.146;11.502;2022-12-07T09:36:24;3.00;99.90
24176;DHT22;12324;48.146;11.502;2022-12-07T09:38:51;3.10;99.90
24176;DHT22;12324;48.146;11.502;2022-12-07T09:41:17;3.10;99.90
24176;DHT22;12324;48.146;11.502;2022-12-07T09:43:45;3.10;99.90
24176;DHT22;12324;48.146;11.502;2022-12-07T09:46:15;3.20;99.90
24176;DHT22;12324;48.146;11.502;2022-12-07T09:48:44;3.20;99.90
24176;DHT22;12324;48.146;11.502;2022-12-07T09:51:16;3.20;99.90
24176;DHT22;12324;48.146;11.502;2022-12-07T09:53:54;3.20;99.90
24176;DHT22;12324;48.146;11.502;2022-12-07T09:56:22;3.20;99.90
24176;DHT22;12324;48.146;11.502;2022-12-07T09:59:01;3.40;99.90
24176;DHT22;12324;48.146;11.502;2022-12-07T10:01:33;3.40;99.90
24176;DHT22;12324;48.146;11.502;2022-12-07T10:04:19;3.20;99.90
24176;DHT22;12324;48.146;11.502;2022-12-07T10:06:48;3.30;99.90
24176;DHT22;12324;48.146;11.502;2022-12-07T10:09:17;3.40;99.90
24176;DHT22;12324;48.146;11.502;2022-12-07T10:12:10;3.50;99.90
24176;DHT22;12324;48.146;11.502;2022-12-07T10:14:39;3.60;99.90
24176;DHT22;12324;48.146;11.502;2022-12-07T10:17:29;3.60;99.90
24176;DHT22;12324;48.146;11.502;2022-12-07T10:20:20;3.60;99.90
24176;DHT22;12324;48.146;11.502;2022-12-07T10:23:17;3.80;99.90
24176;DHT22;12324;48.146;11.502;2022-12-07T10:25:45;3.90;99.90
24176;DHT22;12324;48.146;11.502;2022-12-07T10:28:17;3.80;99.90
24176;DHT22;12324;48.146;11.502;2022-12-07T10:31:15;3.80;99.90
24176;DHT22;12324;48.146;11.502;2022-12-07T10:33:57;3.80;99.90
24176;DHT22;12324;48.146;11.502;2022-12-07T10:36:34;3.90;99.90
24176;DHT22;12324;48.146;11.502;2022-12-07T10:39:14;4.00;99.90
24176;DHT22;12324;48.146;11.502;2022-12-07T10:41:54;4.00;99.90
24176;DHT22;12324;48.146;11.502;2022-12-07T10:44:25;4.00;99.90
24176;DHT22;12324;48.146;11.502;2022-12-07T11:00:39;4.20;99.90
24176;DHT22;12324;48.146;11.502;2022-12-07T11:06:20;4.40;99.90
24176;DHT22;12324;48.146;11.502;2022-12-07T11:08:59;4.50;99.90
24176;DHT22;12324;48.146;11.502;2022-12-07T11:11:35;4.50;99.90
24176;DHT22;12324;48.146;11.502;2022-12-07T11:14:25;4.60;99.90
24176;DHT22;12324;48.146;11.502;2022-12-07T11:17:13;4.80;99.90
24176;DHT22;12324;48.146;11.502;2022-12-07T11:30:57;5.10;99.90
24176;DHT22;12324;48.146;11.502;2022-12-07T11:33:33;5.20;99.90
24176;DHT22;12324;48.146;11.502;2022-12-07T11:38:55;5.30;99.90
24176;DHT22;12324;48.146;11.502;2022-12-07T11:41:28;5.40;99.90
24176;DHT22;12324;48.146;11.502;2022-12-07T11:44:27;5.50;99.90
24176;DHT22;12324;48.146;11.502;2022-12-07T11:47:25;5.50;99.90
24176;DHT22;12324;48.146;11.502;2022-12-07T11:52:49;5.40;99.90
24176;DHT22;12324;48.146;11.502;2022-12-07T11:55:42;5.00;99.90
24176;DHT22;12324;48.146;11.502;2022-12-07T12:03:49;5.00;99.90
24176;DHT22;12324;48.146;11.502;2022-12-07T12:06:20;5.00;99.90
24176;DHT22;12324;48.146;11.502;2022-12-07T12:09:14;4.90;99.90
24176;DHT22;12324;48.146;11.502;2022-12-07T12:12:12;4.70;99.90
24176;DHT22;12324;48.146;11.502;2022-12-07T12:17:50;4.60;99.90
24176;DHT22;12324;48.146;11.502;2022-12-07T12:20:32;4.50;99.90
24176;DHT22;12324;48.146;11.502;2022-12-07T12:23:22;4.40;99.90
24176;DHT22;12324;48.146;11.502;2022-12-07T12:26:02;4.30;99.90
24176;DHT22;12324;48.146;11.502;2022-12-07T12:28:57;4.30;99.90
24176;DHT22;12324;48.146;11.502;2022-12-07T12:31:33;4.40;99.90
24176;DHT22;12324;48.146;11.502;2022-12-07T12:34:10;4.40;99.90
24176;DHT22;12324;48.146;11.502;2022-12-07T12:36:50;4.40;99.90
24176;DHT22;12324;48.146;11.502;2022-12-07T12:39:17;4.30;99.90
24176;DHT22;12324;48.146;11.502;2022-12-07T12:46:57;4.20;99.90
24176;DHT22;12324;48.146;11.502;2022-12-07T12:49:30;4.20;99.90
24176;DHT22;12324;48.146;11.502;2022-12-07T12:52:00;4.10;99.90
24176;DHT22;12324;48.146;11.502;2022-12-07T12:54:32;4.10;99.90
24176;DHT22;12324;48.146;11.502;2022-12-07T12:57:07;4.20;99.90
24176;DHT22;12324;48.146;11.502;2022-12-07T13:00:14;4.20;99.90
24176;DHT22;12324;48.146;11.502;2022-12-07T13:05:16;4.30;99.90
24176;DHT22;12324;48.146;11.502;2022-12-07T13:15:47;4.50;99.90
24176;DHT22;12324;48.146;11.502;2022-12-07T13:23:37;4.50;99.90
24176;DHT22;12324;48.146;11.502;2022-12-07T13:31:52;4.30;99.90
24176;DHT22;12324;48.146;11.502;2022-12-07T13:34:36;4.20;99.90
24176;DHT22;12324;48.146;11.502;2022-12-07T13:37:14;4.20;99.90
24176;DHT22;12324;48.146;11.502;2022-12-07T13:39:53;4.30;99.90
24176;DHT22;12324;48.146;11.502;2022-12-07T13:42:27;4.40;99.90
24176;DHT22;12324;48.146;11.502;2022-12-07T13:44:54;4.40;99.90
24176;DHT22;12324;48.146;11.502;2022-12-07T13:47:43;4.40;99.90
24176;DHT22;12324;48.146;11.502;2022-12-07T13:50:29;4.30;99.90
24176;DHT22;12324;48.146;11.502;2022-12-07T13:52:59;4.20;99.90
24176;DHT22;12324;48.146;11.502;2022-12-07T13:55:28;4.20;99.90
24176;DHT22;12324;48.146;11.502;2022-12-07T13:57:56;4.20;99.90
24176;DHT22;12324;48.146;11.502;2022-12-07T14:00:25;4.10;99.90
24176;DHT22;12324;48.146;11.502;2022-12-07T14:05:40;4.10;99.90
24176;DHT22;12324;48.146;11.502;2022-12-07T14:10:52;4.20;99.90
24176;DHT22;12324;48.146;11.502;2022-12-07T14:13:32;4.20;99.90
24176;DHT22;12324;48.146;11.502;2022-12-07T14:18:57;4.20;99.90
24176;DHT22;12324;48.146;11.502;2022-12-07T14:21:27;4.20;99.90
24176;DHT22;12324;48.146;11.502;2022-12-07T14:26:36;4.10;99.90
24176;DHT22;12324;48.146;11.502;2022-12-07T14:29:41;4.00;99.90
24176;DHT22;12324;48.146;11.502;2022-12-07T14:32:23;4.00;99.90
24176;DHT22;12324;48.146;11.502;2022-12-07T14:35:08;4.00;99.90
24176;DHT22;12324;48.146;11.502;2022-12-07T14:37:37;3.90;99.90
24176;DHT22;12324;48.146;11.502;2022-12-07T14:40:05;3.90;99.90
24176;DHT22;12324;48.146;11.502;2022-12-07T14:42:33;3.80;99.90
24176;DHT22;12324;48.146;11.502;2022-12-07T14:45:01;3.70;99.90
24176;DHT22;12324;48.146;11.502;2022-12-07T14:47:28;3.70;99.90
24176;DHT22;12324;48.146;11.502;2022-12-07T14:50:17;3.60;99.90
24176;DHT22;12324;48.146;11.502;2022-12-07T14:52:50;3.60;99.90
24176;DHT22;12324;48.146;11.502;2022-12-07T14:55:38;3.60;99.90
24176;DHT22;12324;48.146;11.502;2022-12-07T14:58:05;3.50;99.90
24176;DHT22;12324;48.146;11.502;2022-12-07T15:00:31;3.50;99.90
24176;DHT22;12324;48.146;11.502;2022-12-07T15:03:00;3.40;99.90
24176;DHT22;12324;48.146;11.502;2022-12-07T15:05:27;3.40;99.90
24176;DHT22;12324;48.146;11.502;2022-12-07T15:07:54;3.40;99.90
24176;DHT22;12324;48.146;11.502;2022-12-07T15:10:26;3.40;99.90
24176;DHT22;12324;48.146;11.502;2022-12-07T15:12:57;3.30;99.90
24176;DHT22;12324;48.146;11.502;2022-12-07T15:15:51;3.20;99.90
24176;DHT22;12324;48.146;11.502;2022-12-07T15:18:19;3.20;99.90
24176;DHT22;12324;48.146;11.502;2022-12-07T15:20:47;3.10;99.90
24176;DHT22;12324;48.146;11.502;2022-12-07T15:23:14;3.10;99.90
24176;DHT22;12324;48.146;11.502;2022-12-07T15:25:43;3.00;99.90
24176;DHT22;12324;48.146;11.502;2022-12-07T15:28:09;3.00;99.90
24176;DHT22;12324;48.146;11.502;2022-12-07T15:30:40;2.90;99.90
24176;DHT22;12324;48.146;11.502;2022-12-07T15:33:10;2.90;99.90
24176;DHT22;12324;48.146;11.502;2022-12-07T15:35:44;2.90;99.90
24176;DHT22;12324;48.146;11.502;2022-12-07T15:38:11;2.90;99.90
24176;DHT22;12324;48.146;11.502;2022-12-07T15:40:38;2.90;99.90
24176;DHT22;12324;48.146;11.502;2022-12-07T15:43:05;2.90;99.90
24176;DHT22;12324;48.146;11.502;2022-12-07T15:45:52;2.90;99.90
24176;DHT22;12324;48.146;11.502;2022-12-07T15:48:19;2.90;99.90
24176;DHT22;12324;48.146;11.502;2022-12-07T15:51:05;3.00;99.90
24176;DHT22;12324;48.146;11.502;2022-12-07T15:53:32;2.90;99.90
24176;DHT22;12324;48.146;11.502;2022-12-07T15:56:00;2.80;99.90
24176;DHT22;12324;48.146;11.502;2022-12-07T15:58:27;2.70;99.90
24176;DHT22;12324;48.146;11.502;2022-12-07T16:00:54;2.70;99.90
24176;DHT22;12324;48.146;11.502;2022-12-07T16:03:20;2.60;99.90
24176;DHT22;12324;48.146;11.502;2022-12-07T16:05:51;2.60;99.90
24176;DHT22;12324;48.146;11.502;2022-12-07T16:08:19;2.50;99.90
24176;DHT22;12324;48.146;11.502;2022-12-07T16:10:45;2.50;99.90
24176;DHT22;12324;48.146;11.502;2022-12-07T16:13:12;2.40;99.90
24176;DHT22;12324;48.146;11.502;2022-12-07T16:15:41;2.40;99.90
24176;DHT22;12324;48.146;11.502;2022-12-07T16:18:08;2.40;99.90
24176;DHT22;12324;48.146;11.502;2022-12-07T16:20:35;2.30;99.90
24176;DHT22;12324;48.146;11.502;2022-12-07T16:23:01;2.50;99.90
24176;DHT22;12324;48.146;11.502;2022-12-07T16:25:28;2.50;99.90
24176;DHT22;12324;48.146;11.502;2022-12-07T16:27:55;2.50;99.90
24176;DHT22;12324;48.146;11.502;2022-12-07T16:30:22;2.60;99.90
24176;DHT22;12324;48.146;11.502;2022-12-07T16:32:48;2.50;99.90
24176;DHT22;12324;48.146;11.502;2022-12-07T16:35:15;2.50;99.90
24176;DHT22;12324;48.146;11.502;2022-12-07T16:37:43;2.60;99.90
24176;DHT22;12324;48.146;11.502;2022-12-07T16:40:10;2.60;99.90
24176;DHT22;12324;48.146;11.502;2022-12-07T16:42:37;2.50;99.90
24176;DHT22;12324;48.146;11.502;2022-12-07T16:45:04;2.50;99.90
24176;DHT22;12324;48.146;11.502;2022-12-07T16:47:31;2.50;99.90
24176;DHT22;12324;48.146;11.502;2022-12-07T16:49:58;2.50;99.90
24176;DHT22;12324;48.146;11.502;2022-12-07T16:52:25;2.40;99.90
24176;DHT22;12324;48.146;11.502;2022-12-07T16:54:51;2.40;99.90
24176;DHT22;12324;48.146;11.502;2022-12-07T16:57:18;2.30;99.90
24176;DHT22;12324;48.146;11.502;2022-12-07T16:59:49;2.40;99.90
24176;DHT22;12324;48.146;11.502;2022-12-07T17:02:16;2.50;99.90
24176;DHT22;12324;48.146;11.502;2022-12-07T17:04:42;2.30;99.90
24176;DHT22;12324;48.146;11.502;2022-12-07T17:07:09;2.20;99.90
24176;DHT22;12324;48.146;11.502;2022-12-07T17:09:36;2.20;99.90
24176;DHT22;12324;48.146;11.502;2022-12-07T17:12:03;2.10;99.90
24176;DHT22;12324;48.146;11.502;2022-12-07T17:14:32;2.40;99.90
24176;DHT22;12324;48.146;11.502;2022-12-07T17:17:17;2.40;99.90
24176;DHT22;12324;48.146;11.502;2022-12-07T17:19:44;2.40;99.90
24176;DHT22;12324;48.146;11.502;2022-12-07T17:22:10;2.50;99.90
24176;DHT22;12324;48.146;11.502;2022-12-07T17:24:39;2.30;99.90
24176;DHT22;12324;48.146;11.502;2022-12-07T17:27:05;2.30;99.90
24176;DHT22;12324;48.146;11.502;2022-12-07T17:29:32;2.00;99.90
24176;DHT22;12324;48.146;11.502;2022-12-07T17:31:59;1.80;99.90
24176;DHT22;12324;48.146;11.502;2022-12-07T17:34:26;1.70;99.90
24176;DHT22;12324;48.146;11.502;2022-12-07T17:36:52;1.70;99.90
24176;DHT22;12324;48.146;11.502;2022-12-07T17:39:21;1.60;99.90
24176;DHT22;12324;48.146;11.502;2022-12-07T17:41:47;1.60;99.90
24176;DHT22;12324;48.146;11.502;2022-12-07T17:44:33;1.50;99.90
24176;DHT22;12324;48.146;11.502;2022-12-07T17:47:00;1.50;99.90
24176;DHT22;12324;48.146;11.502;2022-12-07T17:49:29;1.40;99.90